sensor_id;sensor_type;location;lat;lon;timestamp;pressure;altitude;pressure_sealevel;temperature;humidity
23164;BME280;31429;42.674;23.350;2023-02-26T00:00:25;93627.94;;;15.56;58.70
23164;BME280;31429;42.674;23.350;2023-02-26T00:01:28;93631.06;;;15.13;57.54
23164;BME280;31429;42.674;23.350;2023-02-26T00:02:29;93642.69;;;15.19;59.10
23164;BME280;31429;42.674;23.350;2023-02-26T00:03:30;93642.03;;;15.39;61.09
23164;BME280;31429;42.674;23.350;2023-02-26T00:04:32;93643.13;;;15.47;61.62
23164;BME280;31429;42.674;23.350;2023-02-26T00:05:32;93634.28;;;15.28;57.13
23164;BME280;31429;42.674;23.350;2023-02-26T00:06:35;93620.81;;;15.24;59.33
23164;BME280;31429;42.674;23.350;2023-02-26T00:07:37;93625.47;;;15.19;59.42
23164;BME280;31429;42.674;23.350;2023-02-26T00:08:40;93619.03;;;15.14;58.65
23164;BME280;31429;42.674;23.350;2023-02-26T00:09:41;93624.66;;;15.19;61.57
23164;BME280;31429;42.674;23.350;2023-02-26T00:10:42;93633.91;;;15.21;59.54
23164;BME280;31429;42.674;23.350;2023-02-26T00:11:43;93635.81;;;15.30;64.79
23164;BME280;31429;42.674;23.350;2023-02-26T00:12:44;93628.75;;;15.21;64.14
23164;BME280;31429;42.674;23.350;2023-02-26T00:13:45;93622.94;;;15.30;62.90
23164;BME280;31429;42.674;23.350;2023-02-26T00:15:06;93613.25;;;14.99;57.91
23164;BME280;31429;42.674;23.350;2023-02-26T00:16:14;93619.41;;;15.20;75.62
23164;BME280;31429;42.674;23.350;2023-02-26T00:17:33;93623.47;;;15.12;62.49
23164;BME280;31429;42.674;23.350;2023-02-26T00:18:36;93608.16;;;15.21;65.64
23164;BME280;31429;42.674;23.350;2023-02-26T00:19:39;93612.41;;;15.33;67.02
23164;BME280;31429;42.674;23.350;2023-02-26T00:20:40;93607.38;;;15.21;58.51
23164;BME280;31429;42.674;23.350;2023-02-26T00:21:43;93606.41;;;15.22;57.55
23164;BME280;31429;42.674;23.350;2023-02-26T00:22:44;93609.94;;;15.21;64.86
23164;BME280;31429;42.674;23.350;2023-02-26T00:23:45;93595.91;;;15.36;71.85
23164;BME280;31429;42.674;23.350;2023-02-26T00:24:46;93606.56;;;15.42;64.44
23164;BME280;31429;42.674;23.350;2023-02-26T00:25:47;93614.34;;;15.53;67.38
23164;BME280;31429;42.674;23.350;2023-02-26T00:26:47;93623.13;;;15.51;65.62
23164;BME280;31429;42.674;23.350;2023-02-26T00:27:49;93612.19;;;15.36;60.07
23164;BME280;31429;42.674;23.350;2023-02-26T00:28:50;93608.41;;;15.18;74.82
23164;BME280;31429;42.674;23.350;2023-02-26T00:29:51;93618.69;;;15.53;82.61
23164;BME280;31429;42.674;23.350;2023-02-26T00:30:52;93609.44;;;15.50;65.75
23164;BME280;31429;42.674;23.350;2023-02-26T00:31:53;93610.28;;;15.73;80.35
23164;BME280;31429;42.674;23.350;2023-02-26T00:32:54;93612.25;;;15.70;64.55
23164;BME280;31429;42.674;23.350;2023-02-26T00:33:56;93612.69;;;15.52;60.86
23164;BME280;31429;42.674;23.350;2023-02-26T00:34:59;93610.94;;;15.53;63.30
23164;BME280;31429;42.674;23.350;2023-02-26T00:36:07;93600.59;;;15.31;57.66
23164;BME280;31429;42.674;23.350;2023-02-26T00:37:22;93568.13;;;15.06;59.80
23164;BME280;31429;42.674;23.350;2023-02-26T00:38:29;93603.41;;;15.39;62.81
23164;BME280;31429;42.674;23.350;2023-02-26T00:39:41;93609.22;;;15.30;60.87
23164;BME280;31429;42.674;23.350;2023-02-26T00:40:45;93613.47;;;15.31;59.83
23164;BME280;31429;42.674;23.350;2023-02-26T00:41:46;93614.13;;;15.22;60.19
23164;BME280;31429;42.674;23.350;2023-02-26T00:42:48;93611.75;;;15.08;58.44
23164;BME280;31429;42.674;23.350;2023-02-26T00:43:49;93609.00;;;14.87;58.80
23164;BME280;31429;42.674;23.350;2023-02-26T00:44:50;93603.06;;;14.98;61.46
23164;BME280;31429;42.674;23.350;2023-02-26T00:45:56;93605.72;;;15.20;76.62
23164;BME280;31429;42.674;23.350;2023-02-26T00:47:07;93601.94;;;15.13;60.08
23164;BME280;31429;42.674;23.350;2023-02-26T00:48:22;93600.13;;;14.91;58.78
23164;BME280;31429;42.674;23.350;2023-02-26T00:49:30;93586.28;;;14.81;58.98
23164;BME280;31429;42.674;23.350;2023-02-26T00:50:35;93594.06;;;14.92;65.02
23164;BME280;31429;42.674;23.350;2023-02-26T00:51:42;93588.28;;;15.23;67.81
23164;BME280;31429;42.674;23.350;2023-02-26T00:52:56;93579.38;;;15.16;62.13
23164;BME280;31429;42.674;23.350;2023-02-26T00:54:06;93579.72;;;15.12;62.55
23164;BME280;31429;42.674;23.350;2023-02-26T00:55:09;93582.88;;;15.15;62.20
23164;BME280;31429;42.674;23.350;2023-02-26T00:56:09;93581.34;;;15.13;66.51
23164;BME280;31429;42.674;23.350;2023-02-26T00:57:10;93575.06;;;15.28;66.09
23164;BME280;31429;42.674;23.350;2023-02-26T00:58:11;93574.78;;;15.09;57.48
23164;BME280;31429;42.674;23.350;2023-02-26T00:59:11;93581.31;;;15.02;58.83
23164;BME280;31429;42.674;23.350;2023-02-26T01:00:13;93589.97;;;15.01;58.14
23164;BME280;31429;42.674;23.350;2023-02-26T01:01:14;93602.69;;;14.91;58.27
23164;BME280;31429;42.674;23.350;2023-02-26T01:02:15;93591.09;;;14.85;57.49
23164;BME280;31429;42.674;23.350;2023-02-26T01:03:16;93590.78;;;14.66;57.69
23164;BME280;31429;42.674;23.350;2023-02-26T01:04:19;93584.69;;;14.67;57.84
23164;BME280;31429;42.674;23.350;2023-02-26T01:05:20;93574.19;;;14.70;57.97
23164;BME280;31429;42.674;23.350;2023-02-26T01:06:26;93574.72;;;14.86;62.38
23164;BME280;31429;42.674;23.350;2023-02-26T01:07:30;93574.41;;;15.02;63.26
23164;BME280;31429;42.674;23.350;2023-02-26T01:08:41;93577.56;;;14.94;58.03
23164;BME280;31429;42.674;23.350;2023-02-26T01:09:44;93574.31;;;15.04;60.19
23164;BME280;31429;42.674;23.350;2023-02-26T01:10:45;93580.34;;;14.91;57.09
23164;BME280;31429;42.674;23.350;2023-02-26T01:11:47;93585.91;;;15.09;60.19
23164;BME280;31429;42.674;23.350;2023-02-26T01:12:48;93585.59;;;15.25;59.01
23164;BME280;31429;42.674;23.350;2023-02-26T01:13:49;93578.91;;;15.22;59.07
23164;BME280;31429;42.674;23.350;2023-02-26T01:14:50;93579.69;;;15.01;56.44
23164;BME280;31429;42.674;23.350;2023-02-26T01:15:58;93564.69;;;14.94;58.07
23164;BME280;31429;42.674;23.350;2023-02-26T01:17:07;93580.19;;;14.82;57.08
23164;BME280;31429;42.674;23.350;2023-02-26T01:18:13;93581.84;;;14.83;57.78
23164;BME280;31429;42.674;23.350;2023-02-26T01:19:21;93581.31;;;14.67;57.41
23164;BME280;31429;42.674;23.350;2023-02-26T01:20:28;93562.22;;;14.58;57.34
23164;BME280;31429;42.674;23.350;2023-02-26T01:21:35;93553.59;;;14.70;58.30
23164;BME280;31429;42.674;23.350;2023-02-26T01:22:40;93546.06;;;14.91;62.31
23164;BME280;31429;42.674;23.350;2023-02-26T01:23:46;93550.81;;;15.19;74.24
23164;BME280;31429;42.674;23.350;2023-02-26T01:24:55;93539.81;;;15.06;60.87
23164;BME280;31429;42.674;23.350;2023-02-26T01:26:02;93534.25;;;14.88;58.38
23164;BME280;31429;42.674;23.350;2023-02-26T01:27:06;93546.97;;;14.44;59.73
23164;BME280;31429;42.674;23.350;2023-02-26T01:28:07;93550.63;;;14.53;61.22
23164;BME280;31429;42.674;23.350;2023-02-26T01:29:09;93557.63;;;14.51;60.94
23164;BME280;31429;42.674;23.350;2023-02-26T01:30:11;93542.25;;;14.38;60.88
23164;BME280;31429;42.674;23.350;2023-02-26T01:31:25;93536.53;;;14.22;59.99
23164;BME280;31429;42.674;23.350;2023-02-26T01:32:37;93534.13;;;14.08;60.88
23164;BME280;31429;42.674;23.350;2023-02-26T01:33:45;93509.72;;;14.13;59.12
23164;BME280;31429;42.674;23.350;2023-02-26T01:34:52;93523.25;;;14.28;62.31
23164;BME280;31429;42.674;23.350;2023-02-26T01:35:58;93539.78;;;14.60;69.63
23164;BME280;31429;42.674;23.350;2023-02-26T01:37:10;93527.63;;;14.62;62.88
23164;BME280;31429;42.674;23.350;2023-02-26T01:38:17;93512.94;;;14.75;62.57
23164;BME280;31429;42.674;23.350;2023-02-26T01:39:25;93515.28;;;14.78;58.15
23164;BME280;31429;42.674;23.350;2023-02-26T01:40:54;93516.22;;;14.77;56.25
23164;BME280;31429;42.674;23.350;2023-02-26T01:42:05;93493.41;;;14.73;61.38
23164;BME280;31429;42.674;23.350;2023-02-26T01:43:16;93506.28;;;14.73;56.21
23164;BME280;31429;42.674;23.350;2023-02-26T01:44:25;93517.63;;;14.81;58.64
23164;BME280;31429;42.674;23.350;2023-02-26T01:45:31;93520.28;;;15.15;62.53
23164;BME280;31429;42.674;23.350;2023-02-26T01:46:36;93517.25;;;15.10;56.17
23164;BME280;31429;42.674;23.350;2023-02-26T01:47:40;93512.03;;;14.98;55.79
23164;BME280;31429;42.674;23.350;2023-02-26T01:48:48;93507.84;;;14.98;58.55
23164;BME280;31429;42.674;23.350;2023-02-26T01:49:49;93502.47;;;15.01;58.70
23164;BME280;31429;42.674;23.350;2023-02-26T01:50:50;93494.13;;;14.86;55.71
23164;BME280;31429;42.674;23.350;2023-02-26T01:51:52;93512.38;;;14.83;55.14
23164;BME280;31429;42.674;23.350;2023-02-26T01:53:19;93506.13;;;14.63;56.24
23164;BME280;31429;42.674;23.350;2023-02-26T01:54:22;93512.50;;;14.47;56.42
23164;BME280;31429;42.674;23.350;2023-02-26T01:55:25;93512.72;;;14.44;58.77
23164;BME280;31429;42.674;23.350;2023-02-26T01:56:26;93521.66;;;14.14;56.81
23164;BME280;31429;42.674;23.350;2023-02-26T01:57:27;93510.63;;;14.01;56.36
23164;BME280;31429;42.674;23.350;2023-02-26T01:58:31;93495.72;;;14.76;100.00
23164;BME280;31429;42.674;23.350;2023-02-26T01:59:35;93495.28;;;14.82;69.54
23164;BME280;31429;42.674;23.350;2023-02-26T02:00:36;93479.75;;;14.83;70.93
23164;BME280;31429;42.674;23.350;2023-02-26T02:01:37;93491.63;;;14.73;58.78
23164;BME280;31429;42.674;23.350;2023-02-26T02:02:39;93500.06;;;14.64;55.30
23164;BME280;31429;42.674;23.350;2023-02-26T02:03:40;93469.97;;;14.54;54.80
23164;BME280;31429;42.674;23.350;2023-02-26T02:04:41;93471.28;;;14.70;63.24
23164;BME280;31429;42.674;23.350;2023-02-26T02:05:46;93479.75;;;14.83;61.34
23164;BME280;31429;42.674;23.350;2023-02-26T02:06:49;93480.91;;;14.90;56.55
23164;BME280;31429;42.674;23.350;2023-02-26T02:07:50;93493.69;;;14.92;63.11
23164;BME280;31429;42.674;23.350;2023-02-26T02:08:52;93502.47;;;14.89;56.09
23164;BME280;31429;42.674;23.350;2023-02-26T02:09:52;93516.09;;;14.79;52.90
23164;BME280;31429;42.674;23.350;2023-02-26T02:10:53;93502.97;;;14.71;52.44
23164;BME280;31429;42.674;23.350;2023-02-26T02:12:12;93500.13;;;14.98;58.64
23164;BME280;31429;42.674;23.350;2023-02-26T02:13:27;93505.75;;;15.03;55.86
23164;BME280;31429;42.674;23.350;2023-02-26T02:14:40;93499.06;;;14.89;52.92
23164;BME280;31429;42.674;23.350;2023-02-26T02:15:45;93491.72;;;15.07;61.04
23164;BME280;31429;42.674;23.350;2023-02-26T02:16:54;93467.59;;;15.30;75.48
23164;BME280;31429;42.674;23.350;2023-02-26T02:18:02;93464.56;;;14.91;55.51
23164;BME280;31429;42.674;23.350;2023-02-26T02:19:22;93482.94;;;15.09;55.62
23164;BME280;31429;42.674;23.350;2023-02-26T02:20:56;93501.75;;;14.98;55.41
23164;BME280;31429;42.674;23.350;2023-02-26T02:22:26;93500.34;;;14.83;53.62
23164;BME280;31429;42.674;23.350;2023-02-26T02:23:34;93483.00;;;14.74;58.48
23164;BME280;31429;42.674;23.350;2023-02-26T02:24:48;93490.53;;;15.22;76.36
23164;BME280;31429;42.674;23.350;2023-02-26T02:26:18;93492.06;;;15.24;71.05
23164;BME280;31429;42.674;23.350;2023-02-26T02:27:30;93489.50;;;15.24;57.01
23164;BME280;31429;42.674;23.350;2023-02-26T02:28:43;93472.41;;;15.12;72.30
23164;BME280;31429;42.674;23.350;2023-02-26T02:30:05;93491.38;;;15.22;59.58
23164;BME280;31429;42.674;23.350;2023-02-26T02:31:14;93509.41;;;15.22;58.43
23164;BME280;31429;42.674;23.350;2023-02-26T02:32:20;93489.50;;;15.35;62.01
23164;BME280;31429;42.674;23.350;2023-02-26T02:33:27;93483.41;;;15.14;56.13
23164;BME280;31429;42.674;23.350;2023-02-26T02:34:33;93492.19;;;15.12;54.83
23164;BME280;31429;42.674;23.350;2023-02-26T02:35:38;93501.63;;;14.89;53.23
23164;BME280;31429;42.674;23.350;2023-02-26T02:36:47;93489.81;;;14.86;68.61
23164;BME280;31429;42.674;23.350;2023-02-26T02:37:56;93480.91;;;14.90;53.66
23164;BME280;31429;42.674;23.350;2023-02-26T02:39:02;93468.38;;;14.64;52.54
23164;BME280;31429;42.674;23.350;2023-02-26T02:40:07;93481.53;;;14.59;51.73
23164;BME280;31429;42.674;23.350;2023-02-26T02:41:13;93494.59;;;14.91;56.96
23164;BME280;31429;42.674;23.350;2023-02-26T02:42:21;93515.53;;;14.86;53.87
23164;BME280;31429;42.674;23.350;2023-02-26T02:43:27;93503.72;;;14.73;52.27
23164;BME280;31429;42.674;23.350;2023-02-26T02:44:34;93500.22;;;14.85;64.70
23164;BME280;31429;42.674;23.350;2023-02-26T02:45:40;93491.22;;;14.90;54.67
23164;BME280;31429;42.674;23.350;2023-02-26T02:46:45;93499.53;;;15.05;58.50
23164;BME280;31429;42.674;23.350;2023-02-26T02:47:49;93501.66;;;15.00;53.86
23164;BME280;31429;42.674;23.350;2023-02-26T02:48:56;93498.22;;;14.77;52.18
23164;BME280;31429;42.674;23.350;2023-02-26T02:50:03;93509.16;;;15.03;60.40
23164;BME280;31429;42.674;23.350;2023-02-26T02:51:08;93516.41;;;15.09;68.54
23164;BME280;31429;42.674;23.350;2023-02-26T02:52:13;93513.31;;;14.93;52.23
23164;BME280;31429;42.674;23.350;2023-02-26T02:53:18;93513.72;;;14.65;52.26
23164;BME280;31429;42.674;23.350;2023-02-26T02:54:24;93517.91;;;15.01;63.26
23164;BME280;31429;42.674;23.350;2023-02-26T02:55:30;93514.03;;;14.95;59.81
23164;BME280;31429;42.674;23.350;2023-02-26T02:56:34;93506.78;;;15.00;56.83
23164;BME280;31429;42.674;23.350;2023-02-26T02:57:44;93507.94;;;14.85;52.56
23164;BME280;31429;42.674;23.350;2023-02-26T02:58:48;93510.06;;;15.02;63.45
23164;BME280;31429;42.674;23.350;2023-02-26T02:59:52;93512.53;;;15.04;54.65
23164;BME280;31429;42.674;23.350;2023-02-26T03:00:59;93509.00;;;14.93;52.40
23164;BME280;31429;42.674;23.350;2023-02-26T03:02:06;93500.31;;;14.72;52.84
23164;BME280;31429;42.674;23.350;2023-02-26T03:03:14;93518.63;;;15.03;61.61
23164;BME280;31429;42.674;23.350;2023-02-26T03:04:17;93518.16;;;15.09;57.51
23164;BME280;31429;42.674;23.350;2023-02-26T03:05:18;93510.09;;;14.67;51.16
23164;BME280;31429;42.674;23.350;2023-02-26T03:06:19;93520.56;;;14.88;56.71
23164;BME280;31429;42.674;23.350;2023-02-26T03:07:19;93529.06;;;14.66;53.86
23164;BME280;31429;42.674;23.350;2023-02-26T03:08:22;93526.53;;;14.88;56.81
23164;BME280;31429;42.674;23.350;2023-02-26T03:09:25;93521.78;;;15.06;64.50
23164;BME280;31429;42.674;23.350;2023-02-26T03:10:25;93520.25;;;15.04;54.96
23164;BME280;31429;42.674;23.350;2023-02-26T03:11:27;93511.25;;;15.09;55.58
23164;BME280;31429;42.674;23.350;2023-02-26T03:12:30;93519.69;;;15.11;56.84
23164;BME280;31429;42.674;23.350;2023-02-26T03:13:32;93529.25;;;14.98;51.06
23164;BME280;31429;42.674;23.350;2023-02-26T03:14:32;93496.88;;;15.07;60.75
23164;BME280;31429;42.674;23.350;2023-02-26T03:15:37;93519.94;;;15.30;66.08
23164;BME280;31429;42.674;23.350;2023-02-26T03:16:50;93501.44;;;15.14;54.69
23164;BME280;31429;42.674;23.350;2023-02-26T03:18:00;93493.91;;;14.89;54.26
23164;BME280;31429;42.674;23.350;2023-02-26T03:19:09;93511.78;;;14.79;51.61
23164;BME280;31429;42.674;23.350;2023-02-26T03:20:20;93506.34;;;15.06;58.84
23164;BME280;31429;42.674;23.350;2023-02-26T03:21:29;93513.38;;;15.15;55.96
23164;BME280;31429;42.674;23.350;2023-02-26T03:22:35;93530.91;;;15.21;53.45
23164;BME280;31429;42.674;23.350;2023-02-26T03:23:44;93528.09;;;15.24;59.97
23164;BME280;31429;42.674;23.350;2023-02-26T03:24:49;93508.53;;;14.88;49.30
23164;BME280;31429;42.674;23.350;2023-02-26T03:25:52;93511.84;;;15.13;61.23
23164;BME280;31429;42.674;23.350;2023-02-26T03:26:57;93497.44;;;14.99;52.44
23164;BME280;31429;42.674;23.350;2023-02-26T03:28:05;93507.94;;;14.85;48.88
23164;BME280;31429;42.674;23.350;2023-02-26T03:29:11;93504.56;;;14.95;53.94
23164;BME280;31429;42.674;23.350;2023-02-26T03:30:18;93517.16;;;14.87;49.78
23164;BME280;31429;42.674;23.350;2023-02-26T03:31:24;93508.16;;;14.93;54.46
23164;BME280;31429;42.674;23.350;2023-02-26T03:32:30;93499.78;;;15.13;56.58
23164;BME280;31429;42.674;23.350;2023-02-26T03:33:41;93502.94;;;15.17;59.38
23164;BME280;31429;42.674;23.350;2023-02-26T03:34:48;93522.88;;;15.26;53.73
23164;BME280;31429;42.674;23.350;2023-02-26T03:35:54;93507.25;;;15.05;55.40
23164;BME280;31429;42.674;23.350;2023-02-26T03:37:02;93494.63;;;15.13;54.30
23164;BME280;31429;42.674;23.350;2023-02-26T03:38:08;93500.72;;;15.01;64.95
23164;BME280;31429;42.674;23.350;2023-02-26T03:39:15;93523.16;;;14.99;52.52
23164;BME280;31429;42.674;23.350;2023-02-26T03:40:21;93522.13;;;15.13;58.66
23164;BME280;31429;42.674;23.350;2023-02-26T03:41:28;93511.59;;;15.05;51.75
23164;BME280;31429;42.674;23.350;2023-02-26T03:42:34;93513.09;;;15.07;50.98
23164;BME280;31429;42.674;23.350;2023-02-26T03:43:40;93507.28;;;15.16;51.86
23164;BME280;31429;42.674;23.350;2023-02-26T03:44:44;93495.34;;;15.15;54.52
23164;BME280;31429;42.674;23.350;2023-02-26T03:45:48;93493.34;;;15.19;49.97
23164;BME280;31429;42.674;23.350;2023-02-26T03:46:54;93505.06;;;15.34;62.49
23164;BME280;31429;42.674;23.350;2023-02-26T03:47:57;93500.03;;;15.21;51.26
23164;BME280;31429;42.674;23.350;2023-02-26T03:49:05;93493.25;;;15.31;52.36
23164;BME280;31429;42.674;23.350;2023-02-26T03:50:10;93491.97;;;15.15;48.65
23164;BME280;31429;42.674;23.350;2023-02-26T03:51:12;93488.91;;;15.10;49.02
23164;BME280;31429;42.674;23.350;2023-02-26T03:52:14;93498.00;;;14.91;55.40
23164;BME280;31429;42.674;23.350;2023-02-26T03:53:19;93496.72;;;14.86;48.99
23164;BME280;31429;42.674;23.350;2023-02-26T03:54:29;93503.97;;;14.81;53.95
23164;BME280;31429;42.674;23.350;2023-02-26T03:55:33;93500.59;;;15.14;54.77
23164;BME280;31429;42.674;23.350;2023-02-26T03:56:39;93503.22;;;14.79;49.93
23164;BME280;31429;42.674;23.350;2023-02-26T03:57:42;93488.56;;;14.57;49.09
23164;BME280;31429;42.674;23.350;2023-02-26T03:58:43;93485.41;;;14.65;50.13
23164;BME280;31429;42.674;23.350;2023-02-26T03:59:44;93491.78;;;14.83;52.63
23164;BME280;31429;42.674;23.350;2023-02-26T04:00:49;93482.53;;;14.80;49.62
23164;BME280;31429;42.674;23.350;2023-02-26T04:01:58;93487.78;;;14.79;53.01
23164;BME280;31429;42.674;23.350;2023-02-26T04:03:04;93494.84;;;14.99;60.78
23164;BME280;31429;42.674;23.350;2023-02-26T04:04:11;93500.38;;;15.17;54.80
23164;BME280;31429;42.674;23.350;2023-02-26T04:05:16;93478.59;;;14.98;50.71
23164;BME280;31429;42.674;23.350;2023-02-26T04:06:18;93471.59;;;15.01;50.85
23164;BME280;31429;42.674;23.350;2023-02-26T04:07:20;93495.06;;;14.96;49.92
23164;BME280;31429;42.674;23.350;2023-02-26T04:08:22;93486.88;;;14.91;49.79
23164;BME280;31429;42.674;23.350;2023-02-26T04:09:24;93503.75;;;14.95;49.79
23164;BME280;31429;42.674;23.350;2023-02-26T04:10:31;93505.03;;;15.01;50.00
23164;BME280;31429;42.674;23.350;2023-02-26T04:11:34;93496.91;;;14.72;48.88
23164;BME280;31429;42.674;23.350;2023-02-26T04:12:36;93482.41;;;14.71;51.30
23164;BME280;31429;42.674;23.350;2023-02-26T04:13:37;93476.81;;;14.77;55.65
23164;BME280;31429;42.674;23.350;2023-02-26T04:14:37;93472.72;;;14.85;51.85
23164;BME280;31429;42.674;23.350;2023-02-26T04:15:38;93481.59;;;14.81;50.29
23164;BME280;31429;42.674;23.350;2023-02-26T04:16:39;93494.34;;;14.72;49.93
23164;BME280;31429;42.674;23.350;2023-02-26T04:17:40;93475.78;;;14.45;49.67
23164;BME280;31429;42.674;23.350;2023-02-26T04:18:41;93479.28;;;14.44;52.17
23164;BME280;31429;42.674;23.350;2023-02-26T04:19:43;93468.16;;;14.78;56.50
23164;BME280;31429;42.674;23.350;2023-02-26T04:20:44;93473.31;;;14.89;56.61
23164;BME280;31429;42.674;23.350;2023-02-26T04:21:45;93479.34;;;14.66;50.89
23164;BME280;31429;42.674;23.350;2023-02-26T04:22:45;93491.34;;;15.00;58.94
23164;BME280;31429;42.674;23.350;2023-02-26T04:23:46;93478.91;;;14.83;51.62
23164;BME280;31429;42.674;23.350;2023-02-26T04:24:47;93479.03;;;14.81;51.95
23164;BME280;31429;42.674;23.350;2023-02-26T04:25:47;93479.41;;;15.10;55.02
23164;BME280;31429;42.674;23.350;2023-02-26T04:26:48;93484.91;;;14.94;49.18
23164;BME280;31429;42.674;23.350;2023-02-26T04:27:49;93461.28;;;14.78;52.56
23164;BME280;31429;42.674;23.350;2023-02-26T04:28:49;93463.72;;;14.80;52.22
23164;BME280;31429;42.674;23.350;2023-02-26T04:29:50;93473.22;;;15.02;61.60
23164;BME280;31429;42.674;23.350;2023-02-26T04:30:51;93466.25;;;14.69;49.68
23164;BME280;31429;42.674;23.350;2023-02-26T04:31:51;93465.03;;;14.96;54.12
23164;BME280;31429;42.674;23.350;2023-02-26T04:32:52;93460.00;;;14.84;49.21
23164;BME280;31429;42.674;23.350;2023-02-26T04:33:55;93464.09;;;14.98;51.41
23164;BME280;31429;42.674;23.350;2023-02-26T04:34:57;93457.53;;;15.05;49.71
23164;BME280;31429;42.674;23.350;2023-02-26T04:35:57;93449.34;;;14.88;49.27
23164;BME280;31429;42.674;23.350;2023-02-26T04:36:58;93450.00;;;14.68;50.21
23164;BME280;31429;42.674;23.350;2023-02-26T04:37:59;93442.06;;;14.71;49.86
23164;BME280;31429;42.674;23.350;2023-02-26T04:38:59;93454.66;;;14.52;50.22
23164;BME280;31429;42.674;23.350;2023-02-26T04:40:00;93453.97;;;14.50;49.60
23164;BME280;31429;42.674;23.350;2023-02-26T04:41:01;93442.00;;;14.38;50.46
23164;BME280;31429;42.674;23.350;2023-02-26T04:42:02;93454.22;;;14.69;53.18
23164;BME280;31429;42.674;23.350;2023-02-26T04:43:04;93434.75;;;14.43;51.36
23164;BME280;31429;42.674;23.350;2023-02-26T04:44:05;93438.16;;;14.44;49.43
23164;BME280;31429;42.674;23.350;2023-02-26T04:45:06;93459.44;;;14.57;49.50
23164;BME280;31429;42.674;23.350;2023-02-26T04:46:07;93441.78;;;14.52;48.82
23164;BME280;31429;42.674;23.350;2023-02-26T04:47:07;93443.91;;;14.58;49.00
23164;BME280;31429;42.674;23.350;2023-02-26T04:48:08;93453.28;;;14.70;48.49
23164;BME280;31429;42.674;23.350;2023-02-26T04:49:08;93441.97;;;14.84;52.88
23164;BME280;31429;42.674;23.350;2023-02-26T04:50:11;93443.28;;;15.01;52.53
23164;BME280;31429;42.674;23.350;2023-02-26T04:51:12;93447.38;;;14.92;48.96
23164;BME280;31429;42.674;23.350;2023-02-26T04:52:12;93431.09;;;14.80;48.99
23164;BME280;31429;42.674;23.350;2023-02-26T04:53:13;93435.53;;;14.78;49.47
23164;BME280;31429;42.674;23.350;2023-02-26T04:54:13;93432.84;;;15.02;54.26
23164;BME280;31429;42.674;23.350;2023-02-26T04:55:14;93434.03;;;14.87;49.18
23164;BME280;31429;42.674;23.350;2023-02-26T04:56:15;93431.69;;;14.73;49.65
23164;BME280;31429;42.674;23.350;2023-02-26T04:57:16;93444.44;;;14.96;58.55
23164;BME280;31429;42.674;23.350;2023-02-26T04:58:16;93442.59;;;15.10;52.72
23164;BME280;31429;42.674;23.350;2023-02-26T04:59:17;93451.22;;;14.98;48.65
23164;BME280;31429;42.674;23.350;2023-02-26T05:00:18;93437.16;;;14.90;52.12
23164;BME280;31429;42.674;23.350;2023-02-26T05:01:19;93446.19;;;15.07;65.33
23164;BME280;31429;42.674;23.350;2023-02-26T05:02:20;93441.03;;;14.96;48.98
23164;BME280;31429;42.674;23.350;2023-02-26T05:03:21;93423.47;;;14.90;52.63
23164;BME280;31429;42.674;23.350;2023-02-26T05:04:21;93432.00;;;14.79;49.46
23164;BME280;31429;42.674;23.350;2023-02-26T05:05:23;93432.72;;;14.81;51.31
23164;BME280;31429;42.674;23.350;2023-02-26T05:06:24;93440.69;;;14.78;49.77
23164;BME280;31429;42.674;23.350;2023-02-26T05:07:25;93454.97;;;15.05;56.73
23164;BME280;31429;42.674;23.350;2023-02-26T05:08:25;93444.66;;;15.05;49.07
23164;BME280;31429;42.674;23.350;2023-02-26T05:09:26;93451.63;;;14.58;49.96
23164;BME280;31429;42.674;23.350;2023-02-26T05:10:26;93444.66;;;14.82;51.26
23164;BME280;31429;42.674;23.350;2023-02-26T05:11:27;93450.75;;;14.92;51.04
23164;BME280;31429;42.674;23.350;2023-02-26T05:12:28;93446.91;;;14.98;51.85
23164;BME280;31429;42.674;23.350;2023-02-26T05:13:28;93425.34;;;14.88;52.72
23164;BME280;31429;42.674;23.350;2023-02-26T05:14:29;93439.97;;;14.98;60.78
23164;BME280;31429;42.674;23.350;2023-02-26T05:15:30;93436.25;;;15.14;62.06
23164;BME280;31429;42.674;23.350;2023-02-26T05:16:30;93442.22;;;15.14;52.80
23164;BME280;31429;42.674;23.350;2023-02-26T05:17:31;93445.09;;;14.65;49.30
23164;BME280;31429;42.674;23.350;2023-02-26T05:18:32;93439.41;;;14.38;48.47
23164;BME280;31429;42.674;23.350;2023-02-26T05:19:32;93429.03;;;14.51;51.60
23164;BME280;31429;42.674;23.350;2023-02-26T05:20:35;93442.09;;;14.36;49.14
23164;BME280;31429;42.674;23.350;2023-02-26T05:21:35;93435.09;;;14.38;48.00
23164;BME280;31429;42.674;23.350;2023-02-26T05:22:37;93434.53;;;14.46;48.58
23164;BME280;31429;42.674;23.350;2023-02-26T05:23:37;93428.47;;;14.58;51.55
23164;BME280;31429;42.674;23.350;2023-02-26T05:24:38;93432.34;;;14.53;49.58
23164;BME280;31429;42.674;23.350;2023-02-26T05:25:39;93423.56;;;14.55;51.10
23164;BME280;31429;42.674;23.350;2023-02-26T05:26:39;93411.28;;;14.13;49.14
23164;BME280;31429;42.674;23.350;2023-02-26T05:27:40;93411.94;;;14.04;53.91
23164;BME280;31429;42.674;23.350;2023-02-26T05:28:44;93419.38;;;13.96;64.24
23164;BME280;31429;42.674;23.350;2023-02-26T05:29:45;93418.66;;;14.28;50.55
23164;BME280;31429;42.674;23.350;2023-02-26T05:30:45;93406.50;;;14.54;48.10
23164;BME280;31429;42.674;23.350;2023-02-26T05:31:46;93424.75;;;14.84;62.56
23164;BME280;31429;42.674;23.350;2023-02-26T05:32:47;93444.09;;;15.12;58.52
23164;BME280;31429;42.674;23.350;2023-02-26T05:33:48;93448.97;;;14.93;50.30
23164;BME280;31429;42.674;23.350;2023-02-26T05:34:48;93450.84;;;14.69;48.75
23164;BME280;31429;42.674;23.350;2023-02-26T05:35:50;93442.97;;;14.70;50.55
23164;BME280;31429;42.674;23.350;2023-02-26T05:36:51;93445.94;;;14.88;53.86